sensor_id;sensor_type;location;lat;lon;timestamp;P1;durP1;ratioP1;P2;durP2;ratioP2
17686;SDS011;8962;52.538;13.266;2023-05-23T00:01:40;5.93;;;4.43;;
17686;SDS011;8962;52.538;13.266;2023-05-23T00:04:07;6.32;;;4.70;;
17686;SDS011;8962;52.538;13.266;2023-05-23T00:06:36;8.25;;;4.60;;
17686;SDS011;8962;52.538;13.266;2023-05-23T00:09:03;12.05;;;4.60;;
17686;SDS011;8962;52.538;13.266;2023-05-23T00:11:30;5.78;;;4.18;;
17686;SDS011;8962;52.538;13.266;2023-05-23T00:13:59;5.45;;;4.30;;
17686;SDS011;8962;52.538;13.266;2023-05-23T00:16:27;7.97;;;4.75;;
17686;SDS011;8962;52.538;13.266;2023-05-23T00:18:55;8.02;;;4.72;;
17686;SDS011;8962;52.538;13.266;2023-05-23T00:21:23;7.63;;;4.63;;
17686;SDS011;8962;52.538;13.266;2023-05-23T00:23:52;11.02;;;4.70;;
17686;SDS011;8962;52.538;13.266;2023-05-23T00:26:20;8.57;;;4.50;;
17686;SDS011;8962;52.538;13.266;2023-05-23T00:28:50;7.35;;;4.50;;
17686;SDS011;8962;52.538;13.266;2023-05-23T00:31:18;9.23;;;4.57;;
17686;SDS011;8962;52.538;13.266;2023-05-23T00:33:53;8.40;;;4.95;;
17686;SDS011;8962;52.538;13.266;2023-05-23T00:36:20;6.55;;;4.05;;
17686;SDS011;8962;52.538;13.266;2023-05-23T00:38:49;8.40;;;4.85;;
17686;SDS011;8962;52.538;13.266;2023-05-23T00:41:20;10.00;;;4.47;;
17686;SDS011;8962;52.538;13.266;2023-05-23T00:43:47;8.85;;;5.05;;
17686;SDS011;8962;52.538;13.266;2023-05-23T00:46:17;6.32;;;4.45;;
17686;SDS011;8962;52.538;13.266;2023-05-23T00:48:45;9.25;;;4.88;;
17686;SDS011;8962;52.538;13.266;2023-05-23T00:51:12;6.47;;;4.47;;
17686;SDS011;8962;52.538;13.266;2023-05-23T00:53:43;10.27;;;4.50;;
17686;SDS011;8962;52.538;13.266;2023-05-23T00:56:10;9.88;;;4.78;;
17686;SDS011;8962;52.538;13.266;2023-05-23T00:58:39;6.93;;;5.15;;
17686;SDS011;8962;52.538;13.266;2023-05-23T01:01:07;8.40;;;4.57;;
17686;SDS011;8962;52.538;13.266;2023-05-23T01:03:35;8.18;;;4.68;;
17686;SDS011;8962;52.538;13.266;2023-05-23T01:06:03;8.93;;;4.80;;
17686;SDS011;8962;52.538;13.266;2023-05-23T01:08:33;9.68;;;4.90;;
17686;SDS011;8962;52.538;13.266;2023-05-23T01:11:00;6.40;;;4.45;;
17686;SDS011;8962;52.538;13.266;2023-05-23T01:13:33;10.93;;;5.00;;
17686;SDS011;8962;52.538;13.266;2023-05-23T01:16:09;10.73;;;4.70;;
17686;SDS011;8962;52.538;13.266;2023-05-23T01:18:42;8.77;;;5.03;;
17686;SDS011;8962;52.538;13.266;2023-05-23T01:21:18;6.38;;;4.70;;
17686;SDS011;8962;52.538;13.266;2023-05-23T01:24:01;6.13;;;4.50;;
17686;SDS011;8962;52.538;13.266;2023-05-23T01:26:52;7.07;;;4.47;;
17686;SDS011;8962;52.538;13.266;2023-05-23T01:29:33;6.10;;;4.40;;
17686;SDS011;8962;52.538;13.266;2023-05-23T01:32:06;10.20;;;4.95;;
17686;SDS011;8962;52.538;13.266;2023-05-23T01:34:37;8.05;;;4.60;;
17686;SDS011;8962;52.538;13.266;2023-05-23T01:37:07;7.40;;;4.63;;
17686;SDS011;8962;52.538;13.266;2023-05-23T01:39:34;6.45;;;4.47;;
17686;SDS011;8962;52.538;13.266;2023-05-23T01:42:02;9.25;;;4.50;;
17686;SDS011;8962;52.538;13.266;2023-05-23T01:44:35;8.07;;;4.85;;
17686;SDS011;8962;52.538;13.266;2023-05-23T01:47:04;9.00;;;5.10;;
17686;SDS011;8962;52.538;13.266;2023-05-23T01:49:37;8.32;;;5.40;;
17686;SDS011;8962;52.538;13.266;2023-05-23T01:52:11;8.75;;;5.57;;
17686;SDS011;8962;52.538;13.266;2023-05-23T01:54:40;10.63;;;4.93;;
17686;SDS011;8962;52.538;13.266;2023-05-23T01:57:09;7.10;;;4.97;;
17686;SDS011;8962;52.538;13.266;2023-05-23T01:59:39;10.68;;;5.90;;
17686;SDS011;8962;52.538;13.266;2023-05-23T02:02:08;9.85;;;6.40;;
17686;SDS011;8962;52.538;13.266;2023-05-23T02:04:35;10.57;;;6.15;;
17686;SDS011;8962;52.538;13.266;2023-05-23T02:07:05;9.98;;;6.07;;
17686;SDS011;8962;52.538;13.266;2023-05-23T02:09:33;13.27;;;5.28;;
17686;SDS011;8962;52.538;13.266;2023-05-23T02:12:01;9.77;;;5.55;;
17686;SDS011;8962;52.538;13.266;2023-05-23T02:14:28;7.32;;;5.10;;
17686;SDS011;8962;52.538;13.266;2023-05-23T02:16:58;12.00;;;5.57;;
17686;SDS011;8962;52.538;13.266;2023-05-23T02:19:26;7.00;;;4.70;;
17686;SDS011;8962;52.538;13.266;2023-05-23T02:21:54;9.02;;;4.97;;
17686;SDS011;8962;52.538;13.266;2023-05-23T02:24:24;10.88;;;5.30;;
17686;SDS011;8962;52.538;13.266;2023-05-23T02:26:52;9.25;;;5.22;;
17686;SDS011;8962;52.538;13.266;2023-05-23T02:29:21;10.50;;;5.00;;
17686;SDS011;8962;52.538;13.266;2023-05-23T02:31:48;7.50;;;4.90;;
17686;SDS011;8962;52.538;13.266;2023-05-23T02:34:17;9.63;;;5.28;;
17686;SDS011;8962;52.538;13.266;2023-05-23T02:36:47;5.78;;;4.40;;
17686;SDS011;8962;52.538;13.266;2023-05-23T02:39:15;11.52;;;5.40;;
17686;SDS011;8962;52.538;13.266;2023-05-23T02:41:44;6.60;;;4.78;;
17686;SDS011;8962;52.538;13.266;2023-05-23T02:44:13;7.32;;;4.72;;
17686;SDS011;8962;52.538;13.266;2023-05-23T02:46:40;7.18;;;4.80;;
17686;SDS011;8962;52.538;13.266;2023-05-23T02:49:08;5.57;;;4.75;;
17686;SDS011;8962;52.538;13.266;2023-05-23T02:51:37;11.32;;;4.90;;
17686;SDS011;8962;52.538;13.266;2023-05-23T02:54:04;8.35;;;5.15;;
17686;SDS011;8962;52.538;13.266;2023-05-23T02:56:35;8.77;;;5.43;;
17686;SDS011;8962;52.538;13.266;2023-05-23T02:59:02;9.77;;;5.35;;
17686;SDS011;8962;52.538;13.266;2023-05-23T03:01:33;7.90;;;5.30;;
17686;SDS011;8962;52.538;13.266;2023-05-23T03:04:00;8.57;;;5.43;;
17686;SDS011;8962;52.538;13.266;2023-05-23T03:06:32;9.30;;;5.43;;
17686;SDS011;8962;52.538;13.266;2023-05-23T03:09:02;7.65;;;5.80;;
17686;SDS011;8962;52.538;13.266;2023-05-23T03:11:35;7.20;;;5.50;;
17686;SDS011;8962;52.538;13.266;2023-05-23T03:14:02;9.40;;;5.93;;
17686;SDS011;8962;52.538;13.266;2023-05-23T03:16:29;9.48;;;5.72;;
17686;SDS011;8962;52.538;13.266;2023-05-23T03:18:57;9.70;;;5.53;;
17686;SDS011;8962;52.538;13.266;2023-05-23T03:21:28;9.13;;;5.47;;
17686;SDS011;8962;52.538;13.266;2023-05-23T03:23:56;9.80;;;5.70;;
17686;SDS011;8962;52.538;13.266;2023-05-23T03:26:25;7.93;;;5.18;;
17686;SDS011;8962;52.538;13.266;2023-05-23T03:28:52;8.13;;;5.55;;
17686;SDS011;8962;52.538;13.266;2023-05-23T03:31:19;9.30;;;5.70;;
17686;SDS011;8962;52.538;13.266;2023-05-23T03:33:46;9.55;;;5.70;;
17686;SDS011;8962;52.538;13.266;2023-05-23T03:36:15;7.63;;;5.55;;
17686;SDS011;8962;52.538;13.266;2023-05-23T03:38:46;8.25;;;5.53;;
17686;SDS011;8962;52.538;13.266;2023-05-23T03:41:15;7.88;;;5.70;;
17686;SDS011;8962;52.538;13.266;2023-05-23T03:43:44;10.15;;;5.82;;
17686;SDS011;8962;52.538;13.266;2023-05-23T03:46:14;10.88;;;5.65;;
17686;SDS011;8962;52.538;13.266;2023-05-23T03:48:42;8.15;;;5.82;;
17686;SDS011;8962;52.538;13.266;2023-05-23T03:51:11;9.07;;;5.88;;
17686;SDS011;8962;52.538;13.266;2023-05-23T03:53:39;9.02;;;5.80;;
17686;SDS011;8962;52.538;13.266;2023-05-23T03:56:08;10.15;;;5.97;;
17686;SDS011;8962;52.538;13.266;2023-05-23T03:58:35;9.18;;;5.15;;
17686;SDS011;8962;52.538;13.266;2023-05-23T04:01:10;11.77;;;6.20;;
17686;SDS011;8962;52.538;13.266;2023-05-23T04:03:38;9.32;;;5.47;;
17686;SDS011;8962;52.538;13.266;2023-05-23T04:06:07;9.05;;;5.53;;
17686;SDS011;8962;52.538;13.266;2023-05-23T04:08:37;7.65;;;5.72;;
17686;SDS011;8962;52.538;13.266;2023-05-23T04:11:06;8.88;;;5.57;;
17686;SDS011;8962;52.538;13.266;2023-05-23T04:13:36;9.73;;;5.75;;
17686;SDS011;8962;52.538;13.266;2023-05-23T04:16:11;11.70;;;5.30;;
17686;SDS011;8962;52.538;13.266;2023-05-23T04:18:39;10.95;;;5.90;;
17686;SDS011;8962;52.538;13.266;2023-05-23T04:21:07;8.88;;;5.68;;
17686;SDS011;8962;52.538;13.266;2023-05-23T04:23:41;8.02;;;5.47;;
17686;SDS011;8962;52.538;13.266;2023-05-23T04:26:09;13.35;;;5.63;;
17686;SDS011;8962;52.538;13.266;2023-05-23T04:28:43;12.18;;;5.78;;
17686;SDS011;8962;52.538;13.266;2023-05-23T04:31:12;8.57;;;5.95;;
17686;SDS011;8962;52.538;13.266;2023-05-23T04:33:40;10.25;;;6.15;;
17686;SDS011;8962;52.538;13.266;2023-05-23T04:36:09;10.00;;;5.93;;
17686;SDS011;8962;52.538;13.266;2023-05-23T04:38:40;8.85;;;5.60;;
17686;SDS011;8962;52.538;13.266;2023-05-23T04:41:08;10.70;;;5.85;;
17686;SDS011;8962;52.538;13.266;2023-05-23T04:43:51;16.00;;;6.20;;
17686;SDS011;8962;52.538;13.266;2023-05-23T04:46:41;13.98;;;6.00;;
17686;SDS011;8962;52.538;13.266;2023-05-23T04:49:19;9.95;;;5.80;;
17686;SDS011;8962;52.538;13.266;2023-05-23T04:51:47;11.90;;;5.80;;
17686;SDS011;8962;52.538;13.266;2023-05-23T04:54:28;14.07;;;6.53;;
17686;SDS011;8962;52.538;13.266;2023-05-23T04:56:58;11.90;;;6.25;;
17686;SDS011;8962;52.538;13.266;2023-05-23T04:59:28;15.32;;;6.40;;
17686;SDS011;8962;52.538;13.266;2023-05-23T05:01:57;14.45;;;6.22;;
17686;SDS011;8962;52.538;13.266;2023-05-23T05:04:24;12.95;;;5.65;;
17686;SDS011;8962;52.538;13.266;2023-05-23T05:06:54;10.75;;;6.38;;
17686;SDS011;8962;52.538;13.266;2023-05-23T05:09:21;15.38;;;6.60;;
17686;SDS011;8962;52.538;13.266;2023-05-23T05:11:50;10.75;;;6.57;;
17686;SDS011;8962;52.538;13.266;2023-05-23T05:14:19;10.52;;;6.35;;
17686;SDS011;8962;52.538;13.266;2023-05-23T05:16:46;14.25;;;6.43;;
17686;SDS011;8962;52.538;13.266;2023-05-23T05:19:16;15.80;;;6.88;;
17686;SDS011;8962;52.538;13.266;2023-05-23T05:21:44;11.55;;;6.38;;
17686;SDS011;8962;52.538;13.266;2023-05-23T05:24:12;17.73;;;6.28;;
17686;SDS011;8962;52.538;13.266;2023-05-23T05:26:41;13.57;;;6.20;;
17686;SDS011;8962;52.538;13.266;2023-05-23T05:29:08;14.98;;;6.65;;
17686;SDS011;8962;52.538;13.266;2023-05-23T05:31:35;19.88;;;6.80;;
17686;SDS011;8962;52.538;13.266;2023-05-23T05:34:03;15.23;;;6.40;;
17686;SDS011;8962;52.538;13.266;2023-05-23T05:36:32;17.25;;;5.97;;
17686;SDS011;8962;52.538;13.266;2023-05-23T05:39:01;10.23;;;6.05;;
17686;SDS011;8962;52.538;13.266;2023-05-23T05:41:28;9.07;;;5.57;;
17686;SDS011;8962;52.538;13.266;2023-05-23T05:43:55;11.88;;;5.43;;
17686;SDS011;8962;52.538;13.266;2023-05-23T05:46:23;10.88;;;6.18;;
17686;SDS011;8962;52.538;13.266;2023-05-23T05:48:52;15.27;;;6.07;;
17686;SDS011;8962;52.538;13.266;2023-05-23T05:51:21;13.70;;;6.35;;
17686;SDS011;8962;52.538;13.266;2023-05-23T05:53:50;16.33;;;6.85;;
17686;SDS011;8962;52.538;13.266;2023-05-23T05:56:19;17.08;;;5.88;;
17686;SDS011;8962;52.538;13.266;2023-05-23T05:58:47;13.85;;;6.10;;
17686;SDS011;8962;52.538;13.266;2023-05-23T06:01:15;15.30;;;6.03;;
17686;SDS011;8962;52.538;13.266;2023-05-23T06:03:42;14.35;;;6.20;;
17686;SDS011;8962;52.538;13.266;2023-05-23T06:06:09;9.32;;;5.90;;
17686;SDS011;8962;52.538;13.266;2023-05-23T06:08:38;10.05;;;5.95;;
17686;SDS011;8962;52.538;13.266;2023-05-23T06:11:11;13.30;;;5.63;;
17686;SDS011;8962;52.538;13.266;2023-05-23T06:13:41;9.27;;;5.47;;
17686;SDS011;8962;52.538;13.266;2023-05-23T06:16:08;10.70;;;6.00;;
17686;SDS011;8962;52.538;13.266;2023-05-23T06:18:36;12.68;;;6.15;;
17686;SDS011;8962;52.538;13.266;2023-05-23T06:21:04;11.32;;;5.70;;
17686;SDS011;8962;52.538;13.266;2023-05-23T06:23:34;11.13;;;6.00;;
17686;SDS011;8962;52.538;13.266;2023-05-23T06:26:02;9.50;;;6.32;;
17686;SDS011;8962;52.538;13.266;2023-05-23T06:28:34;11.50;;;6.70;;
17686;SDS011;8962;52.538;13.266;2023-05-23T06:31:03;12.20;;;6.25;;
17686;SDS011;8962;52.538;13.266;2023-05-23T06:33:30;11.40;;;6.00;;
17686;SDS011;8962;52.538;13.266;2023-05-23T06:35:58;13.48;;;5.70;;
17686;SDS011;8962;52.538;13.266;2023-05-23T06:38:28;11.27;;;5.90;;
17686;SDS011;8962;52.538;13.266;2023-05-23T06:40:58;13.15;;;6.10;;
17686;SDS011;8962;52.538;13.266;2023-05-23T06:43:27;23.38;;;7.03;;
17686;SDS011;8962;52.538;13.266;2023-05-23T06:46:12;18.98;;;6.75;;
17686;SDS011;8962;52.538;13.266;2023-05-23T06:48:39;20.02;;;6.63;;
17686;SDS011;8962;52.538;13.266;2023-05-23T06:51:08;22.73;;;7.50;;
17686;SDS011;8962;52.538;13.266;2023-05-23T06:53:36;22.67;;;6.90;;
17686;SDS011;8962;52.538;13.266;2023-05-23T06:56:04;16.00;;;7.10;;
17686;SDS011;8962;52.538;13.266;2023-05-23T06:58:37;13.52;;;6.82;;
17686;SDS011;8962;52.538;13.266;2023-05-23T07:01:08;18.23;;;7.65;;
17686;SDS011;8962;52.538;13.266;2023-05-23T07:03:43;21.20;;;7.78;;
17686;SDS011;8962;52.538;13.266;2023-05-23T07:06:11;10.65;;;6.50;;
17686;SDS011;8962;52.538;13.266;2023-05-23T07:08:39;13.63;;;7.07;;
17686;SDS011;8962;52.538;13.266;2023-05-23T07:11:06;14.15;;;6.75;;
17686;SDS011;8962;52.538;13.266;2023-05-23T07:13:39;10.50;;;6.65;;
17686;SDS011;8962;52.538;13.266;2023-05-23T07:16:13;17.95;;;6.57;;
17686;SDS011;8962;52.538;13.266;2023-05-23T07:18:57;11.93;;;6.65;;
17686;SDS011;8962;52.538;13.266;2023-05-23T07:21:24;14.43;;;7.07;;
17686;SDS011;8962;52.538;13.266;2023-05-23T07:23:52;14.30;;;6.63;;
17686;SDS011;8962;52.538;13.266;2023-05-23T07:26:21;10.63;;;6.55;;
17686;SDS011;8962;52.538;13.266;2023-05-23T07:28:52;12.07;;;7.18;;
17686;SDS011;8962;52.538;13.266;2023-05-23T07:31:20;13.02;;;6.95;;
17686;SDS011;8962;52.538;13.266;2023-05-23T07:33:53;11.30;;;6.57;;
17686;SDS011;8962;52.538;13.266;2023-05-23T07:36:27;8.85;;;6.30;;
17686;SDS011;8962;52.538;13.266;2023-05-23T07:38:58;11.20;;;6.07;;
17686;SDS011;8962;52.538;13.266;2023-05-23T07:41:26;8.57;;;6.10;;
17686;SDS011;8962;52.538;13.266;2023-05-23T07:43:54;12.10;;;6.63;;
17686;SDS011;8962;52.538;13.266;2023-05-23T07:46:22;12.75;;;6.32;;
17686;SDS011;8962;52.538;13.266;2023-05-23T07:48:49;9.55;;;6.25;;
17686;SDS011;8962;52.538;13.266;2023-05-23T07:51:17;11.82;;;5.93;;
17686;SDS011;8962;52.538;13.266;2023-05-23T07:53:49;10.55;;;5.60;;
17686;SDS011;8962;52.538;13.266;2023-05-23T07:56:18;7.95;;;5.78;;
17686;SDS011;8962;52.538;13.266;2023-05-23T07:58:47;9.60;;;6.50;;
17686;SDS011;8962;52.538;13.266;2023-05-23T08:01:15;10.18;;;6.03;;
17686;SDS011;8962;52.538;13.266;2023-05-23T08:04:01;9.65;;;6.18;;
17686;SDS011;8962;52.538;13.266;2023-05-23T08:07:04;11.27;;;6.18;;
17686;SDS011;8962;52.538;13.266;2023-05-23T08:09:46;8.35;;;6.03;;
17686;SDS011;8962;52.538;13.266;2023-05-23T08:12:18;10.30;;;6.25;;
17686;SDS011;8962;52.538;13.266;2023-05-23T08:14:49;10.77;;;6.47;;
17686;SDS011;8962;52.538;13.266;2023-05-23T08:17:26;9.50;;;6.32;;
17686;SDS011;8962;52.538;13.266;2023-05-23T08:19:53;8.85;;;6.38;;
17686;SDS011;8962;52.538;13.266;2023-05-23T08:22:22;9.77;;;6.38;;
17686;SDS011;8962;52.538;13.266;2023-05-23T08:24:53;12.13;;;6.95;;
17686;SDS011;8962;52.538;13.266;2023-05-23T08:27:21;10.35;;;6.55;;
17686;SDS011;8962;52.538;13.266;2023-05-23T08:29:53;11.48;;;7.20;;
17686;SDS011;8962;52.538;13.266;2023-05-23T08:32:21;12.80;;;7.00;;
17686;SDS011;8962;52.538;13.266;2023-05-23T08:34:52;12.85;;;6.63;;
17686;SDS011;8962;52.538;13.266;2023-05-23T08:37:19;11.20;;;6.57;;
17686;SDS011;8962;52.538;13.266;2023-05-23T08:39:48;10.15;;;6.63;;
17686;SDS011;8962;52.538;13.266;2023-05-23T08:42:39;16.13;;;6.93;;
17686;SDS011;8962;52.538;13.266;2023-05-23T08:45:09;13.18;;;6.97;;
17686;SDS011;8962;52.538;13.266;2023-05-23T08:47:42;13.68;;;6.40;;
17686;SDS011;8962;52.538;13.266;2023-05-23T08:50:11;13.15;;;6.55;;
17686;SDS011;8962;52.538;13.266;2023-05-23T08:52:42;12.35;;;7.25;;
17686;SDS011;8962;52.538;13.266;2023-05-23T08:55:10;10.35;;;7.10;;
17686;SDS011;8962;52.538;13.266;2023-05-23T08:57:40;13.00;;;6.60;;
17686;SDS011;8962;52.538;13.266;2023-05-23T09:00:27;10.77;;;6.97;;
17686;SDS011;8962;52.538;13.266;2023-05-23T09:02:55;13.32;;;7.93;;
17686;SDS011;8962;52.538;13.266;2023-05-23T09:05:46;11.45;;;7.28;;
17686;SDS011;8962;52.538;13.266;2023-05-23T09:08:14;9.60;;;7.93;;
17686;SDS011;8962;52.538;13.266;2023-05-23T09:10:43;11.57;;;7.18;;
17686;SDS011;8962;52.538;13.266;2023-05-23T09:13:14;9.68;;;6.82;;
17686;SDS011;8962;52.538;13.266;2023-05-23T09:15:54;8.40;;;7.00;;
17686;SDS011;8962;52.538;13.266;2023-05-23T09:18:24;10.55;;;6.53;;
17686;SDS011;8962;52.538;13.266;2023-05-23T09:20:52;12.77;;;6.95;;
17686;SDS011;8962;52.538;13.266;2023-05-23T09:23:19;11.13;;;6.97;;
17686;SDS011;8962;52.538;13.266;2023-05-23T09:25:47;10.98;;;6.55;;
17686;SDS011;8962;52.538;13.266;2023-05-23T09:28:17;11.65;;;6.78;;
17686;SDS011;8962;52.538;13.266;2023-05-23T09:30:44;11.43;;;7.40;;
17686;SDS011;8962;52.538;13.266;2023-05-23T09:33:12;20.10;;;7.95;;
17686;SDS011;8962;52.538;13.266;2023-05-23T09:35:43;9.38;;;7.43;;
17686;SDS011;8962;52.538;13.266;2023-05-23T09:38:11;13.85;;;7.35;;
17686;SDS011;8962;52.538;13.266;2023-05-23T09:40:43;9.65;;;7.22;;
17686;SDS011;8962;52.538;13.266;2023-05-23T09:43:10;10.65;;;7.72;;
17686;SDS011;8962;52.538;13.266;2023-05-23T09:45:39;11.57;;;7.80;;
17686;SDS011;8962;52.538;13.266;2023-05-23T09:48:06;9.40;;;6.60;;
17686;SDS011;8962;52.538;13.266;2023-05-23T09:50:38;14.60;;;7.53;;
17686;SDS011;8962;52.538;13.266;2023-05-23T09:53:05;8.27;;;6.80;;
17686;SDS011;8962;52.538;13.266;2023-05-23T09:55:33;9.70;;;6.90;;
17686;SDS011;8962;52.538;13.266;2023-05-23T09:58:01;15.27;;;8.23;;
17686;SDS011;8962;52.538;13.266;2023-05-23T10:00:30;10.50;;;7.75;;
17686;SDS011;8962;52.538;13.266;2023-05-23T10:03:00;10.02;;;7.80;;
17686;SDS011;8962;52.538;13.266;2023-05-23T10:05:37;10.32;;;7.85;;
17686;SDS011;8962;52.538;13.266;2023-05-23T10:08:09;13.80;;;8.60;;
17686;SDS011;8962;52.538;13.266;2023-05-23T10:13:38;11.18;;;8.82;;
17686;SDS011;8962;52.538;13.266;2023-05-23T10:16:11;12.93;;;9.38;;
17686;SDS011;8962;52.538;13.266;2023-05-23T10:18:45;12.43;;;9.38;;
17686;SDS011;8962;52.538;13.266;2023-05-23T10:21:18;13.55;;;8.75;;
17686;SDS011;8962;52.538;13.266;2023-05-23T10:23:50;11.32;;;9.38;;
17686;SDS011;8962;52.538;13.266;2023-05-23T10:26:19;13.60;;;10.13;;
17686;SDS011;8962;52.538;13.266;2023-05-23T10:28:47;15.60;;;11.52;;
17686;SDS011;8962;52.538;13.266;2023-05-23T10:31:16;16.40;;;11.45;;
17686;SDS011;8962;52.538;13.266;2023-05-23T10:33:46;15.90;;;12.90;;
17686;SDS011;8962;52.538;13.266;2023-05-23T10:36:21;18.00;;;13.02;;
17686;SDS011;8962;52.538;13.266;2023-05-23T10:38:59;16.80;;;13.43;;
17686;SDS011;8962;52.538;13.266;2023-05-23T10:41:33;17.23;;;13.70;;
17686;SDS011;8962;52.538;13.266;2023-05-23T10:44:08;19.30;;;14.73;;
17686;SDS011;8962;52.538;13.266;2023-05-23T10:46:50;21.88;;;13.98;;
17686;SDS011;8962;52.538;13.266;2023-05-23T10:49:20;19.42;;;15.25;;
17686;SDS011;8962;52.538;13.266;2023-05-23T10:52:03;18.95;;;15.52;;
17686;SDS011;8962;52.538;13.266;2023-05-23T10:54:33;22.95;;;16.65;;
17686;SDS011;8962;52.538;13.266;2023-05-23T10:57:04;20.65;;;16.73;;
17686;SDS011;8962;52.538;13.266;2023-05-23T10:59:31;22.25;;;18.13;;
17686;SDS011;8962;52.538;13.266;2023-05-23T11:01:59;22.98;;;18.20;;
17686;SDS011;8962;52.538;13.266;2023-05-23T11:04:28;23.50;;;18.15;;
17686;SDS011;8962;52.538;13.266;2023-05-23T11:06:56;23.70;;;18.85;;
17686;SDS011;8962;52.538;13.266;2023-05-23T11:09:24;26.00;;;17.88;;
17686;SDS011;8962;52.538;13.266;2023-05-23T11:11:52;26.65;;;19.08;;
17686;SDS011;8962;52.538;13.266;2023-05-23T11:14:30;27.40;;;20.33;;
17686;SDS011;8962;52.538;13.266;2023-05-23T11:17:16;25.67;;;19.98;;
17686;SDS011;8962;52.538;13.266;2023-05-23T11:19:57;26.13;;;19.85;;
17686;SDS011;8962;52.538;13.266;2023-05-23T11:22:28;29.27;;;20.05;;
17686;SDS011;8962;52.538;13.266;2023-05-23T11:24:56;29.20;;;19.80;;
17686;SDS011;8962;52.538;13.266;2023-05-23T11:27:26;33.10;;;21.42;;
17686;SDS011;8962;52.538;13.266;2023-05-23T11:29:57;26.60;;;19.95;;
17686;SDS011;8962;52.538;13.266;2023-05-23T11:32:26;27.48;;;20.30;;
17686;SDS011;8962;52.538;13.266;2023-05-23T11:34:59;32.05;;;21.35;;
17686;SDS011;8962;52.538;13.266;2023-05-23T11:37:28;29.48;;;19.63;;
17686;SDS011;8962;52.538;13.266;2023-05-23T11:39:56;34.63;;;19.85;;
17686;SDS011;8962;52.538;13.266;2023-05-23T11:42:24;24.45;;;20.30;;
17686;SDS011;8962;52.538;13.266;2023-05-23T11:44:51;25.00;;;19.10;;
17686;SDS011;8962;52.538;13.266;2023-05-23T11:47:19;27.42;;;18.83;;
17686;SDS011;8962;52.538;13.266;2023-05-23T11:49:46;24.88;;;19.30;;
17686;SDS011;8962;52.538;13.266;2023-05-23T11:52:15;23.55;;;18.02;;
17686;SDS011;8962;52.538;13.266;2023-05-23T11:54:43;26.48;;;19.88;;
17686;SDS011;8962;52.538;13.266;2023-05-23T11:57:11;26.33;;;18.30;;
17686;SDS011;8962;52.538;13.266;2023-05-23T11:59:41;26.25;;;18.15;;
17686;SDS011;8962;52.538;13.266;2023-05-23T12:02:09;23.48;;;19.33;;
17686;SDS011;8962;52.538;13.266;2023-05-23T12:04:38;28.65;;;19.70;;
17686;SDS011;8962;52.538;13.266;2023-05-23T12:07:05;26.33;;;20.02;;
17686;SDS011;8962;52.538;13.266;2023-05-23T12:09:41;31.67;;;19.95;;
17686;SDS011;8962;52.538;13.266;2023-05-23T12:12:08;30.88;;;20.52;;
17686;SDS011;8962;52.538;13.266;2023-05-23T12:14:36;22.55;;;19.58;;
17686;SDS011;8962;52.538;13.266;2023-05-23T12:17:10;27.85;;;21.55;;
17686;SDS011;8962;52.538;13.266;2023-05-23T12:19:38;29.05;;;21.60;;
17686;SDS011;8962;52.538;13.266;2023-05-23T12:24:43;35.17;;;20.55;;
17686;SDS011;8962;52.538;13.266;2023-05-23T12:27:11;22.70;;;17.30;;
17686;SDS011;8962;52.538;13.266;2023-05-23T12:29:39;22.30;;;16.45;;
17686;SDS011;8962;52.538;13.266;2023-05-23T12:32:06;18.23;;;15.45;;
17686;SDS011;8962;52.538;13.266;2023-05-23T12:34:34;19.27;;;15.20;;
17686;SDS011;8962;52.538;13.266;2023-05-23T12:37:07;18.95;;;14.75;;
17686;SDS011;8962;52.538;13.266;2023-05-23T12:39:38;18.55;;;14.63;;
17686;SDS011;8962;52.538;13.266;2023-05-23T12:42:08;17.45;;;15.30;;
17686;SDS011;8962;52.538;13.266;2023-05-23T12:44:36;18.75;;;15.65;;
17686;SDS011;8962;52.538;13.266;2023-05-23T12:47:06;17.83;;;14.98;;
17686;SDS011;8962;52.538;13.266;2023-05-23T12:49:34;20.25;;;15.75;;
17686;SDS011;8962;52.538;13.266;2023-05-23T12:52:02;21.83;;;16.35;;
17686;SDS011;8962;52.538;13.266;2023-05-23T12:54:29;20.00;;;16.13;;
17686;SDS011;8962;52.538;13.266;2023-05-23T12:57:01;20.65;;;16.35;;
17686;SDS011;8962;52.538;13.266;2023-05-23T12:59:28;24.50;;;18.95;;
17686;SDS011;8962;52.538;13.266;2023-05-23T13:01:58;23.65;;;18.48;;
17686;SDS011;8962;52.538;13.266;2023-05-23T13:04:26;22.45;;;18.23;;
17686;SDS011;8962;52.538;13.266;2023-05-23T13:06:54;24.98;;;18.90;;
17686;SDS011;8962;52.538;13.266;2023-05-23T13:09:21;25.67;;;19.20;;
17686;SDS011;8962;52.538;13.266;2023-05-23T13:11:48;25.90;;;19.42;;
17686;SDS011;8962;52.538;13.266;2023-05-23T13:14:17;25.92;;;19.17;;
17686;SDS011;8962;52.538;13.266;2023-05-23T13:16:44;27.90;;;21.10;;
17686;SDS011;8962;52.538;13.266;2023-05-23T13:19:11;27.65;;;20.17;;
17686;SDS011;8962;52.538;13.266;2023-05-23T13:21:38;27.88;;;19.58;;
17686;SDS011;8962;52.538;13.266;2023-05-23T13:24:06;24.08;;;17.92;;
17686;SDS011;8962;52.538;13.266;2023-05-23T13:26:34;28.25;;;19.02;;
17686;SDS011;8962;52.538;13.266;2023-05-23T13:29:01;27.60;;;18.52;;
17686;SDS011;8962;52.538;13.266;2023-05-23T13:31:30;27.05;;;18.27;;
17686;SDS011;8962;52.538;13.266;2023-05-23T13:33:58;24.42;;;18.00;;
17686;SDS011;8962;52.538;13.266;2023-05-23T13:36:26;26.27;;;18.45;;
17686;SDS011;8962;52.538;13.266;2023-05-23T13:38:53;26.85;;;18.10;;
17686;SDS011;8962;52.538;13.266;2023-05-23T13:41:21;27.90;;;17.98;;
17686;SDS011;8962;52.538;13.266;2023-05-23T13:43:48;26.30;;;18.60;;
17686;SDS011;8962;52.538;13.266;2023-05-23T13:46:16;26.25;;;18.65;;
17686;SDS011;8962;52.538;13.266;2023-05-23T13:48:45;31.65;;;18.52;;
17686;SDS011;8962;52.538;13.266;2023-05-23T13:51:12;28.20;;;18.52;;
17686;SDS011;8962;52.538;13.266;2023-05-23T13:53:39;26.83;;;18.52;;
17686;SDS011;8962;52.538;13.266;2023-05-23T13:56:07;28.63;;;19.50;;
17686;SDS011;8962;52.538;13.266;2023-05-23T13:58:35;29.52;;;19.55;;
17686;SDS011;8962;52.538;13.266;2023-05-23T14:01:07;31.73;;;20.42;;
17686;SDS011;8962;52.538;13.266;2023-05-23T14:03:36;30.00;;;20.08;;
17686;SDS011;8962;52.538;13.266;2023-05-23T14:06:06;34.13;;;21.83;;
17686;SDS011;8962;52.538;13.266;2023-05-23T14:08:34;32.75;;;21.90;;
17686;SDS011;8962;52.538;13.266;2023-05-23T14:11:01;30.88;;;20.83;;
17686;SDS011;8962;52.538;13.266;2023-05-23T14:13:31;28.83;;;19.23;;
17686;SDS011;8962;52.538;13.266;2023-05-23T14:15:58;32.95;;;20.33;;
17686;SDS011;8962;52.538;13.266;2023-05-23T14:18:26;32.58;;;20.50;;
17686;SDS011;8962;52.538;13.266;2023-05-23T14:20:53;29.88;;;19.88;;
17686;SDS011;8962;52.538;13.266;2023-05-23T14:23:22;28.45;;;19.98;;
17686;SDS011;8962;52.538;13.266;2023-05-23T14:25:49;31.45;;;19.70;;
17686;SDS011;8962;52.538;13.266;2023-05-23T14:28:17;31.67;;;19.38;;
17686;SDS011;8962;52.538;13.266;2023-05-23T14:30:44;27.45;;;19.50;;
17686;SDS011;8962;52.538;13.266;2023-05-23T14:33:11;28.00;;;19.30;;
17686;SDS011;8962;52.538;13.266;2023-05-23T14:35:39;24.08;;;18.80;;
17686;SDS011;8962;52.538;13.266;2023-05-23T14:38:06;26.75;;;18.77;;
17686;SDS011;8962;52.538;13.266;2023-05-23T14:40:38;25.95;;;18.88;;
17686;SDS011;8962;52.538;13.266;2023-05-23T14:43:06;26.75;;;18.23;;
17686;SDS011;8962;52.538;13.266;2023-05-23T14:45:34;24.77;;;18.73;;
17686;SDS011;8962;52.538;13.266;2023-05-23T14:48:03;27.05;;;18.83;;
17686;SDS011;8962;52.538;13.266;2023-05-23T14:50:32;28.67;;;14.93;;
17686;SDS011;8962;52.538;13.266;2023-05-23T14:53:00;19.98;;;11.13;;
17686;SDS011;8962;52.538;13.266;2023-05-23T14:55:31;14.77;;;10.25;;